sensor_id;sensor_type;location;lat;lon;timestamp;temperature;humidity
5828;DHT22;42583;50.240;8.444;2023-12-28T00:02:27;5.50;92.60
5828;DHT22;42583;50.240;8.444;2023-12-28T00:17:27;5.20;94.20
5828;DHT22;42583;50.240;8.444;2023-12-28T00:32:27;5.10;95.60
5828;DHT22;42583;50.240;8.444;2023-12-28T00:47:28;5.10;96.10
5828;DHT22;42583;50.240;8.444;2023-12-28T01:02:28;5.20;95.80
5828;DHT22;42583;50.240;8.444;2023-12-28T01:17:29;5.30;96.10
5828;DHT22;42583;50.240;8.444;2023-12-28T01:32:30;5.30;96.70
5828;DHT22;42583;50.240;8.444;2023-12-28T01:47:30;5.40;97.70
5828;DHT22;42583;50.240;8.444;2023-12-28T02:02:32;5.60;98.40
5828;DHT22;42583;50.240;8.444;2023-12-28T02:17:43;5.50;99.90
5828;DHT22;42583;50.240;8.444;2023-12-28T02:33:04;5.40;99.90
5828;DHT22;42583;50.240;8.444;2023-12-28T02:48:08;5.20;99.90
5828;DHT22;42583;50.240;8.444;2023-12-28T03:03:08;5.30;99.90
5828;DHT22;42583;50.240;8.444;2023-12-28T03:18:09;5.20;99.90
5828;DHT22;42583;50.240;8.444;2023-12-28T03:33:09;5.20;99.90
5828;DHT22;42583;50.240;8.444;2023-12-28T03:48:10;5.30;99.90
5828;DHT22;42583;50.240;8.444;2023-12-28T04:03:10;5.30;99.90
5828;DHT22;42583;50.240;8.444;2023-12-28T04:18:11;5.30;99.90
5828;DHT22;42583;50.240;8.444;2023-12-28T04:33:11;5.20;99.90
5828;DHT22;42583;50.240;8.444;2023-12-28T04:48:12;5.10;99.90
5828;DHT22;42583;50.240;8.444;2023-12-28T05:03:12;5.10;99.90
5828;DHT22;42583;50.240;8.444;2023-12-28T05:18:13;5.30;99.90
5828;DHT22;42583;50.240;8.444;2023-12-28T05:33:13;5.30;99.90
5828;DHT22;42583;50.240;8.444;2023-12-28T05:48:14;5.40;99.90
5828;DHT22;42583;50.240;8.444;2023-12-28T06:03:15;5.30;99.90
5828;DHT22;42583;50.240;8.444;2023-12-28T06:18:15;5.30;99.90
5828;DHT22;42583;50.240;8.444;2023-12-28T06:33:16;5.30;99.90
5828;DHT22;42583;50.240;8.444;2023-12-28T06:48:16;5.30;99.90
5828;DHT22;42583;50.240;8.444;2023-12-28T07:03:17;5.30;99.90
5828;DHT22;42583;50.240;8.444;2023-12-28T07:18:17;5.40;99.90
5828;DHT22;42583;50.240;8.444;2023-12-28T07:33:18;5.40;99.90
5828;DHT22;42583;50.240;8.444;2023-12-28T07:48:19;5.40;99.90
5828;DHT22;42583;50.240;8.444;2023-12-28T08:03:20;5.50;99.90
5828;DHT22;42583;50.240;8.444;2023-12-28T08:18:20;5.60;99.90
5828;DHT22;42583;50.240;8.444;2023-12-28T08:33:21;5.70;99.90
5828;DHT22;42583;50.240;8.444;2023-12-28T08:48:21;5.80;99.90
5828;DHT22;42583;50.240;8.444;2023-12-28T09:03:22;5.90;99.90
5828;DHT22;42583;50.240;8.444;2023-12-28T09:18:22;6.10;99.90
5828;DHT22;42583;50.240;8.444;2023-12-28T09:33:23;6.10;99.90
5828;DHT22;42583;50.240;8.444;2023-12-28T09:48:24;6.10;99.90
5828;DHT22;42583;50.240;8.444;2023-12-28T10:03:25;6.20;99.90
5828;DHT22;42583;50.240;8.444;2023-12-28T10:18:25;6.20;99.90
5828;DHT22;42583;50.240;8.444;2023-12-28T10:33:26;6.40;99.90
5828;DHT22;42583;50.240;8.444;2023-12-28T10:48:29;6.50;99.90
5828;DHT22;42583;50.240;8.444;2023-12-28T11:03:34;6.70;99.90
5828;DHT22;42583;50.240;8.444;2023-12-28T11:18:35;6.90;99.90
5828;DHT22;42583;50.240;8.444;2023-12-28T11:33:46;7.00;99.90
5828;DHT22;42583;50.240;8.444;2023-12-28T11:48:47;7.30;99.90
5828;DHT22;42583;50.240;8.444;2023-12-28T12:03:48;7.40;99.90
5828;DHT22;42583;50.240;8.444;2023-12-28T12:18:49;7.40;99.90
5828;DHT22;42583;50.240;8.444;2023-12-28T12:33:50;7.70;99.90
5828;DHT22;42583;50.240;8.444;2023-12-28T12:48:58;7.90;99.90
5828;DHT22;42583;50.240;8.444;2023-12-28T13:03:59;7.90;99.90
5828;DHT22;42583;50.240;8.444;2023-12-28T13:19:00;8.20;99.90
5828;DHT22;42583;50.240;8.444;2023-12-28T13:34:01;8.10;99.90
5828;DHT22;42583;50.240;8.444;2023-12-28T13:49:02;8.10;99.90
5828;DHT22;42583;50.240;8.444;2023-12-28T14:04:04;7.90;99.90
5828;DHT22;42583;50.240;8.444;2023-12-28T14:19:04;7.80;99.90
5828;DHT22;42583;50.240;8.444;2023-12-28T14:34:05;7.80;99.90
5828;DHT22;42583;50.240;8.444;2023-12-28T14:49:06;7.60;99.90
5828;DHT22;42583;50.240;8.444;2023-12-28T15:04:06;7.50;99.90
5828;DHT22;42583;50.240;8.444;2023-12-28T15:19:07;7.50;99.90
5828;DHT22;42583;50.240;8.444;2023-12-28T15:34:08;7.30;99.90
5828;DHT22;42583;50.240;8.444;2023-12-28T15:49:08;7.00;99.90
5828;DHT22;42583;50.240;8.444;2023-12-28T16:04:09;6.80;99.90
5828;DHT22;42583;50.240;8.444;2023-12-28T16:19:10;6.50;99.90
5828;DHT22;42583;50.240;8.444;2023-12-28T16:34:10;6.50;99.90
5828;DHT22;42583;50.240;8.444;2023-12-28T16:49:11;6.50;99.90
5828;DHT22;42583;50.240;8.444;2023-12-28T17:04:11;6.70;99.90
5828;DHT22;42583;50.240;8.444;2023-12-28T17:19:12;6.60;99.90
5828;DHT22;42583;50.240;8.444;2023-12-28T17:34:13;6.60;99.90
5828;DHT22;42583;50.240;8.444;2023-12-28T17:49:19;6.50;99.90
5828;DHT22;42583;50.240;8.444;2023-12-28T18:04:23;6.30;99.90
5828;DHT22;42583;50.240;8.444;2023-12-28T18:19:24;6.30;99.90
5828;DHT22;42583;50.240;8.444;2023-12-28T18:34:24;6.30;99.90
5828;DHT22;42583;50.240;8.444;2023-12-28T18:49:25;6.30;99.90
5828;DHT22;42583;50.240;8.444;2023-12-28T19:04:25;6.30;99.90
5828;DHT22;42583;50.240;8.444;2023-12-28T19:19:26;6.30;99.90
5828;DHT22;42583;50.240;8.444;2023-12-28T19:34:30;6.30;99.90
5828;DHT22;42583;50.240;8.444;2023-12-28T19:49:33;6.30;99.90
5828;DHT22;42583;50.240;8.444;2023-12-28T20:04:35;6.30;99.90
5828;DHT22;42583;50.240;8.444;2023-12-28T20:19:35;6.20;99.90
5828;DHT22;42583;50.240;8.444;2023-12-28T20:34:36;6.10;99.90
5828;DHT22;42583;50.240;8.444;2023-12-28T20:49:37;6.00;99.90
5828;DHT22;42583;50.240;8.444;2023-12-28T21:04:38;6.00;99.90
5828;DHT22;42583;50.240;8.444;2023-12-28T21:19:38;6.00;99.90
5828;DHT22;42583;50.240;8.444;2023-12-28T21:34:39;6.00;99.90
5828;DHT22;42583;50.240;8.444;2023-12-28T21:49:40;6.00;99.90
5828;DHT22;42583;50.240;8.444;2023-12-28T22:04:41;6.10;99.90
5828;DHT22;42583;50.240;8.444;2023-12-28T22:19:42;6.20;99.90
5828;DHT22;42583;50.240;8.444;2023-12-28T22:34:44;6.30;99.90
5828;DHT22;42583;50.240;8.444;2023-12-28T22:49:44;6.40;99.90
5828;DHT22;42583;50.240;8.444;2023-12-28T23:04:46;6.40;99.90
5828;DHT22;42583;50.240;8.444;2023-12-28T23:19:46;6.40;99.90
5828;DHT22;42583;50.240;8.444;2023-12-28T23:34:48;6.40;99.90
5828;DHT22;42583;50.240;8.444;2023-12-28T23:49:49;6.40;99.90
